Time;durP1;ratioP1;P1;durP2;ratioP2;P2;SDS_P1;SDS_P2;PMS_P1;PMS_P2;Temp;Humidity;BMP_temperature;BMP_pressure;BME280_temperature;BME280_humidity;BME280_pressure;Samples;Min_cycle;Max_cycle;Signal;HPM_P1;HPM_P2
2023/10/16 00:04:55;;;;;;;0.90;0.57;;;;;;;19.24;46.63;97118.16;10439041;28;20037;-29
2023/10/16 00:09:55;;;;;;;0.60;0.40;;;;;;;19.27;46.26;97124.06;10429903;28;20091;-30
2023/10/16 00:14:59;;;;;;;1.73;0.63;;;;;;;19.25;46.49;97117.31;10433444;28;20052;-29
2023/10/16 00:20:00;;;;;;;0.80;0.50;;;;;;;19.23;46.23;97117.31;10432659;28;20065;-30
2023/10/16 00:25:01;;;;;;;1.02;0.70;;;;;;;19.24;45.92;97119.00;10444078;28;20096;-30
2023/10/16 00:30:01;;;;;;;1.27;0.77;;;;;;;19.25;46.12;97114.78;10452892;28;20033;-29
2023/10/16 00:35:01;;;;;;;0.97;0.53;;;;;;;19.24;46.26;97108.03;10431709;28;20029;-29
2023/10/16 00:40:10;;;;;;;1.17;0.70;;;;;;;19.24;46.12;97102.94;10436077;28;20044;-29
2023/10/16 00:45:11;;;;;;;1.05;0.50;;;;;;;19.22;46.23;97091.91;10433633;28;20087;-29
2023/10/16 00:50:14;;;;;;;0.95;0.50;;;;;;;19.22;46.06;97084.28;10434596;28;20037;-29
2023/10/16 00:55:15;;;;;;;1.42;0.55;;;;;;;19.22;46.02;97079.22;10432633;28;20487;-30
2023/10/16 01:00:16;;;;;;;1.42;0.65;;;;;;;19.21;46.07;97082.59;10431345;28;20037;-30
2023/10/16 01:05:23;;;;;;;0.90;0.47;;;;;;;19.12;45.93;97057.16;10427738;28;20036;-29
2023/10/16 01:10:24;;;;;;;0.57;0.38;;;;;;;19.20;46.05;97075.84;10439169;28;20152;-30
2023/10/16 01:15:25;;;;;;;0.87;0.50;;;;;;;19.19;45.90;97071.59;10446598;28;20045;-29
2023/10/16 01:20:25;;;;;;;4.57;1.13;;;;;;;19.19;45.53;97074.16;10434952;28;20491;-30
2023/10/16 01:25:26;;;;;;;0.87;0.63;;;;;;;19.19;45.77;97058.91;10429941;28;20052;-29
2023/10/16 01:30:26;;;;;;;0.70;0.40;;;;;;;19.19;45.76;97059.75;10436192;28;20094;-29
2023/10/16 01:35:29;;;;;;;0.80;0.50;;;;;;;19.19;46.07;97058.91;10443195;28;20387;-29
2023/10/16 01:40:37;;;;;;;1.75;0.85;;;;;;;19.18;45.81;97052.13;10420184;28;20158;-30
2023/10/16 01:45:39;;;;;;;1.92;0.70;;;;;;;19.17;45.75;97050.44;10432642;28;20044;-31
2023/10/16 01:50:40;;;;;;;0.95;0.60;;;;;;;19.17;45.72;97051.25;10433357;28;20403;-30
2023/10/16 01:55:45;;;;;;;1.63;0.85;;;;;;;19.17;45.74;97051.25;10430213;28;20103;-29
2023/10/16 02:00:45;;;;;;;0.50;0.45;;;;;;;19.16;45.56;97041.94;10430028;28;20025;-30
2023/10/16 02:05:46;;;;;;;1.07;0.40;;;;;;;19.16;45.60;97029.25;10426707;28;20070;-29
2023/10/16 02:10:49;;;;;;;0.80;0.60;;;;;;;19.15;45.54;97034.31;10425598;28;20041;-30
2023/10/16 02:15:51;;;;;;;1.27;0.60;;;;;;;19.12;45.73;97016.56;10428590;28;20550;-30
2023/10/16 02:20:52;;;;;;;0.73;0.60;;;;;;;19.14;45.63;97010.66;10430149;28;20048;-30
2023/10/16 02:25:53;;;;;;;0.77;0.60;;;;;;;19.14;45.58;96999.63;10432309;28;20037;-30
2023/10/16 02:30:53;;;;;;;0.85;0.57;;;;;;;19.13;45.33;96992.88;10427739;28;21364;-30
2023/10/16 02:35:57;;;;;;;1.20;0.68;;;;;;;19.14;45.20;96994.56;10423544;28;20045;-30
2023/10/16 02:41:02;;;;;;;1.30;0.50;;;;;;;19.14;45.33;96989.47;10424885;28;20032;-30
2023/10/16 02:46:08;;;;;;;0.80;0.60;;;;;;;19.11;45.22;96984.41;10435732;28;20040;-30
2023/10/16 02:51:09;;;;;;;;;;;;;;;19.11;45.25;96985.28;10429194;28;20419;-30
2023/10/16 03:01:18;;;;;;;0.80;0.45;;;;;;;19.08;45.27;96974.28;10436961;28;20462;-30
2023/10/16 03:06:18;;;;;;;0.82;0.43;;;;;;;19.12;45.03;96975.94;10434653;28;20064;-29
2023/10/16 03:11:20;;;;;;;0.97;0.53;;;;;;;19.08;45.05;96974.28;10433277;28;20136;-29
2023/10/16 03:16:26;;;;;;;1.52;0.68;;;;;;;19.10;44.68;96983.56;10428852;28;20128;-30
2023/10/16 03:21:27;;;;;;;1.00;0.60;;;;;;;19.10;44.90;96982.72;10430287;28;20030;-30
2023/10/16 03:26:28;;;;;;;1.33;0.70;;;;;;;19.10;45.11;96975.13;10430350;28;20062;-30
2023/10/16 03:31:29;;;;;;;0.82;0.63;;;;;;;19.10;45.03;96970.03;10431382;28;20076;-29
2023/10/16 03:36:30;;;;;;;1.38;0.88;;;;;;;19.09;45.10;96970.88;10430421;28;20112;-30
2023/10/16 03:41:39;;;;;;;1.60;0.70;;;;;;;19.09;44.95;96959.03;10426046;28;20033;-30
2023/10/16 03:46:40;;;;;;;1.38;0.68;;;;;;;19.14;45.12;96964.97;10423945;28;20407;-31
2023/10/16 03:51:40;;;;;;;1.60;0.85;;;;;;;19.10;44.83;96960.72;10412162;28;20033;-29
2023/10/16 03:56:41;;;;;;;1.50;0.70;;;;;;;19.13;44.72;96962.41;10400269;28;20052;-29
2023/10/16 04:01:44;;;;;;;1.00;0.50;;;;;;;19.14;44.97;96954.81;10420792;28;20075;-29
2023/10/16 04:06:44;;;;;;;2.80;1.58;;;;;;;19.17;45.06;96959.06;10429122;28;20298;-30
2023/10/16 04:11:52;;;;;;;1.13;0.70;;;;;;;19.22;45.05;96949.75;10418925;28;20153;-30
2023/10/16 04:16:55;;;;;;;0.93;0.68;;;;;;;19.25;46.09;96937.91;10424763;28;20047;-29
2023/10/16 04:22:08;;;;;;;1.05;0.73;;;;;;;19.29;45.48;96936.22;10418220;28;20103;-30
2023/10/16 04:32:27;;;;;;;2.45;1.13;;;;;;;19.31;45.09;96932.00;10449100;28;20025;-30
2023/10/16 04:48:07;;;;;;;2.35;0.85;;;;;;;19.35;44.48;96923.53;10433910;28;20091;-30
2023/10/16 04:53:08;;;;;;;2.40;0.90;;;;;;;19.34;45.16;96925.22;10441801;28;20060;-29
2023/10/16 05:08:38;;;;;;;3.22;0.93;;;;;;;19.32;47.15;96919.31;10435004;28;20577;-29
2023/10/16 05:13:39;;;;;;;3.00;1.00;;;;;;;19.28;45.92;96914.22;10444220;28;20037;-30
2023/10/16 05:18:43;;;;;;;6.05;1.42;;;;;;;19.30;45.98;96907.47;10446242;28;20076;-30
2023/10/16 06:16:53;;;;;;;3.13;1.75;;;;;;;19.18;45.73;96913.34;10446803;28;20040;-29
2023/10/16 06:22:06;;;;;;;3.78;1.70;;;;;;;19.18;46.66;96909.97;10442689;28;20053;-30
2023/10/16 06:27:10;;;;;;;2.45;1.77;;;;;;;19.21;46.07;96915.06;10440982;28;20052;-30
2023/10/16 06:32:19;;;;;;;1.52;1.42;;;;;;;19.18;46.87;96920.13;10442679;28;20120;-29
2023/10/16 06:37:21;;;;;;;2.88;1.90;;;;;;;19.19;47.52;96916.78;10443452;28;20040;-29
2023/10/16 06:42:21;;;;;;;3.03;1.23;;;;;;;19.17;47.52;96919.28;10438421;28;20132;-30
2023/10/16 06:47:35;;;;;;;2.13;1.92;;;;;;;19.20;47.35;96918.47;10439599;28;20562;-30
2023/10/16 06:52:35;;;;;;;2.65;1.40;;;;;;;19.19;47.09;96915.06;10438982;28;20514;-30
2023/10/16 06:57:35;;;;;;;4.00;1.80;;;;;;;19.18;47.32;96917.59;10443589;28;20036;-29
2023/10/16 07:02:36;;;;;;;3.03;1.47;;;;;;;19.18;47.86;96918.41;10440494;28;20029;-29
2023/10/16 07:07:39;;;;;;;3.75;1.67;;;;;;;19.19;47.47;96922.69;10439128;28;20095;-29
2023/10/16 07:12:58;;;;;;;1.20;1.10;;;;;;;19.19;47.59;96926.94;10443704;28;20037;-29
2023/10/16 07:18:05;;;;;;;1.73;1.23;;;;;;;19.18;47.58;96930.28;10440013;28;20036;-29
2023/10/16 07:23:10;;;;;;;1.83;1.33;;;;;;;19.17;48.18;96933.66;10437580;28;20031;-29
2023/10/16 07:28:11;;;;;;;2.40;1.25;;;;;;;19.17;47.93;96931.97;10443172;28;20040;-31
2023/10/16 07:33:15;;;;;;;1.93;1.30;;;;;;;19.17;47.87;96923.53;10436414;28;20025;-30
2023/10/16 07:38:20;;;;;;;1.98;1.00;;;;;;;19.15;47.87;96923.50;10437560;28;20287;-31
2023/10/16 07:43:26;;;;;;;1.42;1.10;;;;;;;19.16;47.88;96916.75;10442645;28;20223;-31
2023/10/16 07:48:27;;;;;;;1.30;1.00;;;;;;;19.12;48.12;96902.34;10438648;28;20039;-30
2023/10/16 07:53:28;;;;;;;1.65;1.25;;;;;;;19.15;48.00;96904.88;10442945;28;20053;-31
2023/10/16 07:58:47;;;;;;;2.20;0.98;;;;;;;19.14;48.10;96905.72;10438578;28;20048;-29
2023/10/16 08:03:48;;;;;;;1.42;1.05;;;;;;;19.12;47.91;96902.34;10444770;28;20633;-30
2023/10/16 08:08:49;;;;;;;1.60;1.20;;;;;;;19.12;48.22;96903.22;10450887;28;20043;-30
2023/10/16 08:13:51;;;;;;;3.20;1.48;;;;;;;19.16;48.01;96911.69;10449717;28;20043;-30
2023/10/16 08:18:57;;;;;;;1.40;1.20;;;;;;;19.15;48.26;96915.03;10452628;28;20025;-30
2023/10/16 08:23:59;;;;;;;2.65;1.48;;;;;;;19.15;48.26;96925.19;10449764;28;20086;-30
2023/10/16 08:34:35;;;;;;;2.92;1.27;;;;;;;19.11;48.35;96926.91;10446346;28;20053;-29
2023/10/16 08:39:44;;;;;;;2.05;1.08;;;;;;;19.13;48.19;96929.41;10450256;28;20111;-28
2023/10/16 08:44:46;;;;;;;1.10;0.88;;;;;;;19.13;48.30;96924.34;10441831;28;20048;-27
2023/10/16 08:49:53;;;;;;;1.45;1.08;;;;;;;19.12;48.45;96920.13;10443652;28;20029;-27
2023/10/16 08:55:00;;;;;;;2.00;0.80;;;;;;;19.14;48.43;96910.81;10447164;28;20033;-27
2023/10/16 09:00:10;;;;;;;2.03;1.23;;;;;;;19.12;48.51;96905.75;10449580;28;20044;-27
2023/10/16 09:05:11;;;;;;;1.08;0.85;;;;;;;19.12;48.52;96900.69;10448217;28;20040;-27
2023/10/16 09:10:12;;;;;;;2.88;1.17;;;;;;;19.10;48.26;96897.25;10445432;28;20035;-28
2023/10/16 09:15:12;;;;;;;1.23;1.13;;;;;;;19.11;48.53;96890.50;10449066;28;20029;-27
2023/10/16 09:20:13;;;;;;;1.25;0.90;;;;;;;19.06;48.63;96894.72;10448860;28;20068;-27
2023/10/16 09:25:15;;;;;;;1.20;0.68;;;;;;;19.12;48.37;96892.19;10449665;28;20403;-27
2023/10/16 09:30:15;;;;;;;1.10;1.00;;;;;;;19.10;48.54;96891.38;10449968;28;20057;-27
2023/10/16 09:35:18;;;;;;;1.20;0.87;;;;;;;19.07;48.32;96897.28;10447625;28;20103;-26
2023/10/16 09:40:19;;;;;;;0.98;0.82;;;;;;;19.08;48.58;96893.06;10448738;28;20025;-28
2023/10/16 09:45:19;;;;;;;1.42;0.80;;;;;;;19.11;48.31;96893.06;10448345;28;20513;-27
2023/10/16 09:50:19;;;;;;;1.73;0.80;;;;;;;19.09;48.11;96889.69;10444404;28;20033;-27
2023/10/16 09:55:22;;;;;;;1.15;0.73;;;;;;;19.09;48.26;96890.50;10448542;28;20060;-27
2023/10/16 10:00:32;;;;;;;1.42;0.90;;;;;;;19.09;48.41;96884.59;10447631;28;20091;-27
2023/10/16 10:05:41;;;;;;;1.13;0.70;;;;;;;19.08;48.44;96877.84;10447704;28;20124;-27
2023/10/16 10:16:13;;;;;;;1.02;0.70;;;;;;;19.14;48.16;96857.50;10449090;28;20029;-27
2023/10/16 10:21:18;;;;;;;1.65;0.80;;;;;;;19.19;47.44;96853.31;10447576;28;20029;-28
2023/10/16 10:26:18;;;;;;;1.23;0.95;;;;;;;19.20;47.44;96855.00;10445492;28;20413;-26
2023/10/16 10:31:20;;;;;;;3.30;1.03;;;;;;;19.22;47.33;96845.69;10441829;28;20084;-29
2023/10/16 10:36:44;;;;;;;1.17;0.90;;;;;;;19.27;47.09;96849.09;10449585;28;20362;-29
2023/10/16 10:41:51;;;;;;;3.72;1.20;;;;;;;19.24;46.88;96842.31;10442137;28;20549;-30
2023/10/16 10:46:53;;;;;;;1.65;0.70;;;;;;;19.31;47.05;96843.16;10442809;28;20491;-29
2023/10/16 10:51:54;;;;;;;3.95;0.88;;;;;;;19.30;46.66;96841.47;10448764;28;20144;-30
2023/10/16 10:56:59;;;;;;;3.70;0.90;;;;;;;19.32;46.60;96829.59;10446235;28;20415;-30
2023/10/16 11:02:22;;;;;;;2.00;0.80;;;;;;;19.26;47.84;96816.94;10447189;28;20083;-30
2023/10/16 11:07:29;;;;;;;2.20;0.93;;;;;;;19.32;47.53;96811.81;10446640;28;20044;-29
2023/10/16 11:12:30;;;;;;;3.63;1.15;;;;;;;19.30;47.63;96808.47;10447124;28;20060;-30
2023/10/16 11:17:32;;;;;;;6.13;1.05;;;;;;;19.28;47.83;96792.38;10442961;28;20079;-30
2023/10/16 11:22:34;;;;;;;3.00;1.13;;;;;;;19.28;48.22;96785.63;10445640;28;21919;-29
2023/10/16 11:27:35;;;;;;;2.80;1.20;;;;;;;19.31;48.05;96769.53;10447888;28;20053;-29
2023/10/16 11:32:38;;;;;;;2.50;1.33;;;;;;;19.29;48.14;96766.16;10428720;28;20533;-29
2023/10/16 11:37:39;;;;;;;3.85;1.23;;;;;;;19.29;48.32;96756.00;10444162;28;20392;-30
2023/10/16 11:42:41;;;;;;;4.22;1.38;;;;;;;19.29;49.21;96735.69;10437002;28;20068;-29
2023/10/16 11:47:42;;;;;;;3.08;1.25;;;;;;;19.35;48.19;96733.97;10424205;28;20057;-30
2023/10/16 11:52:42;;;;;;;3.67;1.20;;;;;;;19.32;48.80;96731.44;10431809;28;20033;-30
2023/10/16 11:57:42;;;;;;;2.50;1.40;;;;;;;19.29;48.21;96721.31;10448433;28;20073;-30
2023/10/16 12:02:46;;;;;;;2.63;1.10;;;;;;;19.31;48.07;96714.53;10438219;28;20033;-30
2023/10/16 12:07:48;;;;;;;4.80;1.35;;;;;;;19.30;47.30;96715.38;10442231;28;20033;-30
2023/10/16 12:12:49;;;;;;;5.07;1.33;;;;;;;19.30;49.69;96712.00;10436071;28;20037;-28
2023/10/16 12:17:53;;;;;;;15.95;2.13;;;;;;;19.22;48.68;96694.25;10435142;28;20032;-29
2023/10/16 12:22:54;;;;;;;13.82;2.13;;;;;;;19.34;49.28;96699.28;10443855;28;20396;-30
2023/10/16 12:27:57;;;;;;;7.53;1.67;;;;;;;19.32;48.70;96675.59;10453660;28;20108;-29
2023/10/16 12:32:59;;;;;;;8.93;1.88;;;;;;;19.34;48.16;96662.91;10427732;28;20055;-29
2023/10/16 12:38:04;;;;;;;5.40;1.52;;;;;;;19.35;48.80;96667.97;10439571;28;20033;-30
2023/10/16 12:43:08;;;;;;;9.45;1.95;;;;;;;19.39;48.69;96656.09;10436112;28;20399;-30
2023/10/16 12:48:08;;;;;;;15.75;1.95;;;;;;;19.41;48.08;96656.97;10425162;28;20029;-29
2023/10/16 12:53:08;;;;;;;5.00;1.57;;;;;;;19.44;48.56;96644.25;10432227;28;20416;-29
2023/10/16 12:58:11;;;;;;;5.10;1.77;;;;;;;19.46;48.48;96642.53;10437544;28;20029;-30
2023/10/16 13:03:15;;;;;;;5.05;1.50;;;;;;;19.46;48.59;96633.22;10435589;28;20059;-30
2023/10/16 13:08:22;;;;;;;5.53;1.45;;;;;;;19.51;48.61;96630.66;10441078;28;20037;-30
2023/10/16 13:13:22;;;;;;;3.85;1.52;;;;;;;19.52;48.80;96627.28;10432914;28;20042;-29
2023/10/16 13:18:30;;;;;;;6.40;1.95;;;;;;;19.51;49.08;96621.34;10437661;28;20033;-29
2023/10/16 13:23:33;;;;;;;7.05;1.90;;;;;;;19.52;49.68;96629.81;10447290;28;20033;-29
2023/10/16 13:28:38;;;;;;;7.07;2.13;;;;;;;19.50;51.11;96618.84;10452086;28;20048;-30
2023/10/16 13:33:44;;;;;;;4.57;2.15;;;;;;;19.46;48.64;96614.59;10452692;28;20071;-30
2023/10/16 13:38:44;;;;;;;11.33;3.00;;;;;;;19.48;49.36;96611.22;10438162;28;20517;-29
2023/10/16 13:43:46;;;;;;;3.10;1.85;;;;;;;19.48;49.26;96610.34;10459133;28;20044;-30
2023/10/16 13:48:47;;;;;;;12.98;2.78;;;;;;;19.47;49.21;96604.44;10433392;28;20037;-30
2023/10/16 13:53:48;;;;;;;11.70;3.00;;;;;;;19.46;48.99;96597.69;10450002;28;20487;-29
2023/10/16 13:58:49;;;;;;;7.53;3.90;;;;;;;19.46;49.17;96597.69;10431985;28;20037;-29
2023/10/16 14:03:49;;;;;;;5.88;3.20;;;;;;;19.44;49.52;96589.22;10438509;28;20048;-28
2023/10/16 14:08:50;;;;;;;9.70;2.73;;;;;;;19.44;49.22;96588.38;10432450;28;20135;-29
2023/10/16 14:13:52;;;;;;;6.53;2.22;;;;;;;19.49;49.02;96584.97;10444541;28;20297;-29
2023/10/16 14:18:53;;;;;;;7.47;2.22;;;;;;;19.50;48.81;96588.34;10436709;28;20068;-29
2023/10/16 14:23:53;;;;;;;3.92;1.98;;;;;;;19.49;48.68;96587.50;10434425;28;20040;-30
2023/10/16 14:28:59;;;;;;;4.63;1.50;;;;;;;19.50;48.89;96584.09;10435733;28;20060;-30
2023/10/16 14:33:59;;;;;;;4.72;1.58;;;;;;;19.51;49.14;96585.78;10436689;28;20740;-29
2023/10/16 14:39:03;;;;;;;6.93;1.53;;;;;;;19.51;49.15;96587.50;10434746;28;20041;-29
2023/10/16 14:44:04;;;;;;;2.22;1.15;;;;;;;19.49;49.15;96576.53;10439702;28;20033;-29
2023/10/16 14:49:11;;;;;;;7.40;1.45;;;;;;;19.50;50.55;96585.81;10441068;28;20037;-31
2023/10/16 14:54:11;;;;;;;6.65;1.83;;;;;;;19.52;50.02;96591.72;10428413;28;20402;-29
2023/10/16 14:59:27;;;;;;;11.17;1.50;;;;;;;19.45;49.16;96585.84;10425410;28;20056;-30
2023/10/16 15:04:28;;;;;;;3.22;1.05;;;;;;;19.46;49.01;96581.59;10426267;28;20037;-30
2023/10/16 15:09:28;;;;;;;4.80;1.00;;;;;;;19.42;48.53;96579.94;10427664;28;20048;-29
2023/10/16 15:14:29;;;;;;;3.25;1.13;;;;;;;19.48;48.49;96579.88;10435101;28;20492;-29
2023/10/16 15:19:45;;;;;;;2.45;1.05;;;;;;;19.32;45.67;96578.28;10435479;28;20793;-29
2023/10/16 15:24:45;;;;;;;1.75;0.90;;;;;;;19.31;43.72;96572.38;10430962;28;20045;-29
2023/10/16 15:29:46;;;;;;;2.77;0.80;;;;;;;19.28;45.99;96577.50;10432580;28;20488;-29
2023/10/16 15:34:46;;;;;;;1.52;0.88;;;;;;;19.32;46.04;96573.22;10435912;28;20029;-30
2023/10/16 15:39:50;;;;;;;5.90;1.00;;;;;;;19.34;45.94;96586.75;10437586;28;20037;-29
2023/10/16 15:44:51;;;;;;;2.90;0.80;;;;;;;19.22;44.04;96586.81;10436041;28;20033;-30
2023/10/16 15:49:51;;;;;;;3.43;1.00;;;;;;;19.26;44.94;96586.78;10427440;28;20041;-28
2023/10/16 15:54:52;;;;;;;4.45;1.33;;;;;;;19.25;44.50;96584.28;10439408;28;20491;-30
2023/10/16 15:59:53;;;;;;;1.75;0.95;;;;;;;19.20;41.53;96584.28;10438980;28;20435;-29
2023/10/16 16:04:54;;;;;;;2.35;1.35;;;;;;;19.14;41.37;96588.50;10433707;28;20045;-29
2023/10/16 16:09:57;;;;;;;3.08;1.20;;;;;;;19.16;43.02;96592.72;10431479;28;20044;-30
2023/10/16 16:14:58;;;;;;;2.35;1.08;;;;;;;18.76;41.86;96595.44;10434274;28;20407;-29
2023/10/16 16:19:59;;;;;;;3.38;1.35;;;;;;;18.96;42.10;96603.81;10432248;28;20036;-31
2023/10/16 16:25:00;;;;;;;8.13;1.57;;;;;;;19.03;43.67;96615.63;10442840;28;20033;-30
2023/10/16 16:30:00;;;;;;;1.48;1.00;;;;;;;19.17;44.62;96606.28;10449621;28;20392;-30
2023/10/16 16:35:05;;;;;;;5.05;1.10;;;;;;;19.19;45.14;96599.53;10447132;28;20045;-30
2023/10/16 16:40:06;;;;;;;6.90;1.05;;;;;;;19.18;45.13;96596.09;10439119;28;20033;-30
2023/10/16 16:45:08;;;;;;;1.65;0.80;;;;;;;19.20;45.77;96612.22;10446010;28;20033;-29
2023/10/16 16:50:13;;;;;;;2.75;1.30;;;;;;;19.19;46.12;96613.03;10440942;28;20732;-30
2023/10/16 16:55:15;;;;;;;4.32;1.10;;;;;;;19.22;46.02;96624.88;10449612;28;20422;-30
2023/10/16 17:00:18;;;;;;;4.28;1.30;;;;;;;19.23;45.99;96634.19;10438561;28;20119;-30
2023/10/16 17:05:20;;;;;;;2.88;1.33;;;;;;;19.25;45.89;96648.56;10439560;28;20037;-29
2023/10/16 17:10:27;;;;;;;1.83;1.00;;;;;;;19.28;46.32;96642.63;10439313;28;20090;-31
2023/10/16 17:15:27;;;;;;;;;;;;;;;19.29;46.79;96644.31;10440486;28;20064;-32
2023/10/16 17:20:28;;;;;;;4.45;1.20;;;;;;;19.27;47.44;96643.47;10436534;28;19967;-29
2023/10/16 17:25:28;;;;;;;2.47;0.90;;;;;;;19.23;46.55;96639.25;10436906;28;20041;-29
2023/10/16 17:30:30;;;;;;;4.10;0.90;;;;;;;19.26;45.67;96652.78;10437727;28;20101;-29
2023/10/16 17:35:34;;;;;;;4.15;1.65;;;;;;;19.23;46.83;96654.47;10440645;28;20306;-29
2023/10/16 17:40:35;;;;;;;3.83;1.77;;;;;;;19.21;47.68;96657.03;10450328;28;20115;-29
2023/10/16 17:45:38;;;;;;;6.60;1.10;;;;;;;19.20;47.72;96668.06;10442708;28;20037;-29
2023/10/16 17:50:43;;;;;;;3.28;1.20;;;;;;;19.20;47.78;96659.56;10443205;28;20047;-30
2023/10/16 17:55:44;;;;;;;2.65;1.02;;;;;;;19.19;47.89;96663.78;10447474;28;20044;-30
2023/10/16 18:00:44;;;;;;;2.42;1.00;;;;;;;19.20;47.99;96662.97;10444662;28;20037;-30
2023/10/16 18:05:46;;;;;;;2.63;1.00;;;;;;;19.19;48.04;96678.19;10433729;28;20036;-29
2023/10/16 18:10:48;;;;;;;2.85;1.17;;;;;;;19.19;48.08;96679.03;10447234;28;20092;-29
2023/10/16 18:15:50;;;;;;;5.60;1.02;;;;;;;19.21;47.45;96682.44;10444334;28;20531;-30
2023/10/16 18:20:50;;;;;;;1.85;1.25;;;;;;;19.12;46.29;96682.44;10439279;28;20060;-30
2023/10/16 18:25:51;;;;;;;4.72;1.80;;;;;;;19.17;47.54;96679.88;10427341;28;20033;-30
2023/10/16 18:30:54;;;;;;;4.47;1.65;;;;;;;19.18;47.78;96679.03;10437511;28;20040;-30
2023/10/16 18:35:54;;;;;;;2.38;1.55;;;;;;;19.21;47.41;96679.03;10426810;28;20046;-30
2023/10/16 18:40:54;;;;;;;2.63;1.47;;;;;;;19.20;47.98;96678.19;10425594;28;20112;-29
2023/10/16 18:45:56;;;;;;;3.43;1.90;;;;;;;19.07;46.70;96681.59;10443361;28;20500;-28
2023/10/16 18:50:56;;;;;;;2.25;1.52;;;;;;;19.14;47.40;96680.72;10436719;28;20301;-29
2023/10/16 18:55:57;;;;;;;5.25;1.73;;;;;;;19.14;47.16;96674.78;10445444;28;20032;-30
2023/10/16 19:01:03;;;;;;;4.40;2.17;;;;;;;19.22;46.60;96676.50;10414440;28;20029;-28
2023/10/16 19:06:04;;;;;;;;;;;;;;;19.18;49.13;96664.63;10429769;28;20658;-30
2023/10/16 19:11:07;;;;;;;2.75;1.67;;;;;;;19.19;49.36;96663.78;10434718;28;19921;-30
2023/10/16 19:16:08;;;;;;;4.30;2.10;;;;;;;19.24;48.39;96662.09;10432982;28;20593;-31
2023/10/16 19:21:09;;;;;;;2.75;1.80;;;;;;;19.23;47.62;96644.31;10442473;28;20045;-30
2023/10/16 19:26:12;;;;;;;3.65;1.60;;;;;;;19.33;48.30;96666.31;10440620;28;20502;-29
2023/10/16 19:31:16;;;;;;;5.88;2.00;;;;;;;19.32;48.26;96668.00;10443424;28;20033;-29
2023/10/16 19:36:20;;;;;;;3.70;1.80;;;;;;;19.35;48.08;96674.75;10429819;28;20025;-28
2023/10/16 19:41:22;;;;;;;2.65;1.38;;;;;;;19.36;48.45;96686.59;10428133;28;20032;-29
2023/10/16 19:46:22;;;;;;;4.13;2.08;;;;;;;19.33;49.20;96684.06;10434623;28;20028;-29
2023/10/16 19:51:23;;;;;;;2.43;1.60;;;;;;;19.35;48.91;96685.72;10433882;28;20048;-29
2023/10/16 19:56:24;;;;;;;3.15;1.73;;;;;;;19.36;48.22;96689.13;10427555;28;20675;-31
2023/10/16 20:01:24;;;;;;;2.97;1.42;;;;;;;19.35;48.66;96700.97;10437663;28;20030;-30
2023/10/16 20:06:29;;;;;;;2.40;1.37;;;;;;;19.38;47.94;96689.97;10446222;28;20029;-29
2023/10/16 20:11:29;;;;;;;2.88;1.70;;;;;;;19.40;47.60;96695.88;10445726;28;20041;-29
2023/10/16 20:16:30;;;;;;;2.40;1.40;;;;;;;19.39;48.50;96691.66;10443879;28;20071;-30
2023/10/16 20:21:31;;;;;;;3.50;1.50;;;;;;;19.40;48.32;96693.34;10438862;28;20052;-30
2023/10/16 20:26:33;;;;;;;4.53;1.65;;;;;;;19.39;47.79;96691.66;10446270;28;20119;-29
2023/10/16 20:31:36;;;;;;;2.80;1.60;;;;;;;19.38;48.46;96700.13;10444523;28;20503;-29
2023/10/16 20:36:39;;;;;;;1.75;1.27;;;;;;;19.38;48.24;96715.34;10438946;28;20041;-30
2023/10/16 20:41:41;;;;;;;2.67;1.40;;;;;;;19.37;48.64;96718.75;10447540;28;20044;-30
2023/10/16 20:46:44;;;;;;;5.32;1.70;;;;;;;19.37;48.14;96704.38;10443516;28;20476;-29
2023/10/16 20:51:44;;;;;;;5.40;1.67;;;;;;;19.38;48.32;96710.28;10432423;28;20034;-30
2023/10/16 20:56:47;;;;;;;3.83;1.40;;;;;;;19.42;48.74;96710.25;10444459;28;20419;-30
2023/10/16 21:01:47;;;;;;;2.72;1.27;;;;;;;19.35;48.38;96703.50;10446465;28;20031;-29
2023/10/16 21:06:50;;;;;;;4.72;1.92;;;;;;;19.34;48.41;96708.59;10435853;28;20112;-29
2023/10/16 21:11:50;;;;;;;2.47;1.42;;;;;;;19.34;50.05;96706.91;10449706;28;20037;-30
2023/10/16 21:16:51;;;;;;;6.57;1.20;;;;;;;19.33;49.45;96709.47;10446183;28;20124;-31
2023/10/16 21:21:51;;;;;;;3.30;1.27;;;;;;;19.31;49.80;96704.38;10449806;28;20123;-30
2023/10/16 21:26:51;;;;;;;1.93;1.10;;;;;;;19.31;50.22;96706.06;10451250;28;20037;-29
2023/10/16 21:31:52;;;;;;;2.40;1.13;;;;;;;19.31;50.08;96703.53;10437245;28;20097;-29
2023/10/16 21:36:53;;;;;;;1.70;1.13;;;;;;;19.26;50.10;96698.47;10442647;28;20055;-30
2023/10/16 21:41:54;;;;;;;1.92;1.10;;;;;;;19.23;50.55;96695.09;10450898;28;20527;-30
2023/10/16 21:46:54;;;;;;;2.67;1.45;;;;;;;19.22;50.51;96698.47;10445808;28;20115;-29
2023/10/16 21:51:55;;;;;;;3.53;1.10;;;;;;;19.25;49.77;96691.69;10445560;28;20037;-29
2023/10/16 21:56:56;;;;;;;2.13;1.13;;;;;;;19.24;49.46;96696.81;10450607;28;20032;-29
2023/10/16 22:01:57;;;;;;;4.05;1.13;;;;;;;19.21;51.00;96687.50;10449995;28;20021;-29
2023/10/16 22:06:57;;;;;;;1.63;1.10;;;;;;;19.21;50.61;96684.09;10437790;28;20036;-31
2023/10/16 22:11:59;;;;;;;2.90;1.37;;;;;;;19.22;50.76;96681.56;10450618;28;20032;-29
2023/10/16 22:17:00;;;;;;;1.88;1.23;;;;;;;19.19;50.90;96673.13;10448593;28;20748;-30
2023/10/16 22:22:01;;;;;;;1.20;0.90;;;;;;;19.21;51.06;96668.88;10448543;28;20035;-29
2023/10/16 22:27:03;;;;;;;2.63;1.00;;;;;;;19.21;50.58;96661.25;10435197;28;20032;-29
2023/10/16 22:32:05;;;;;;;3.23;1.50;;;;;;;19.19;51.03;96661.25;10439282;28;20033;-29
2023/10/16 22:37:06;;;;;;;3.47;1.13;;;;;;;19.17;51.21;96665.47;10439496;28;20044;-30
2023/10/16 22:42:06;;;;;;;2.10;1.00;;;;;;;19.17;51.21;96664.66;10442312;28;20059;-30
2023/10/16 22:47:07;;;;;;;1.17;0.83;;;;;;;19.15;51.23;96663.78;10435186;28;20043;-30
2023/10/16 22:52:14;;;;;;;2.38;1.05;;;;;;;19.15;51.34;96664.63;10443978;28;20589;-29
2023/10/16 22:57:14;;;;;;;1.90;0.90;;;;;;;19.12;51.44;96657.06;10442294;28;20028;-29
2023/10/16 23:02:14;;;;;;;1.83;1.50;;;;;;;19.13;51.38;96657.88;10427449;28;20399;-30
2023/10/16 23:07:15;;;;;;;1.37;1.00;;;;;;;19.12;51.35;96641.81;10431129;28;20110;-29
2023/10/16 23:12:19;;;;;;;1.77;0.80;;;;;;;19.12;51.12;96640.97;10441359;28;20283;-29
2023/10/16 23:17:21;;;;;;;1.63;1.10;;;;;;;19.10;51.07;96629.97;10439208;28;20862;-29
2023/10/16 23:22:21;;;;;;;1.02;0.90;;;;;;;19.02;51.49;96614.78;10420886;28;20116;-30
2023/10/16 23:27:22;;;;;;;1.80;1.10;;;;;;;19.10;51.24;96628.28;10436240;28;20457;-31
2023/10/16 23:32:22;;;;;;;1.90;1.50;;;;;;;19.10;51.14;96622.38;10429322;28;20061;-29
2023/10/16 23:37:31;;;;;;;1.67;1.10;;;;;;;19.11;50.88;96612.22;10440306;28;20037;-29
2023/10/16 23:42:34;;;;;;;2.70;1.23;;;;;;;19.11;50.57;96612.22;10442348;28;20032;-29
2023/10/16 23:47:35;;;;;;;1.60;1.10;;;;;;;19.09;50.93;96605.47;10437951;28;20454;-30
2023/10/16 23:52:38;;;;;;;1.40;0.93;;;;;;;19.10;50.59;96612.22;10431464;28;20037;-29
2023/10/16 23:57:48;;;;;;;1.02;0.80;;;;;;;19.09;50.74;96600.38;10447810;28;20037;-29
